Terminal Aerodrome Forecast
Issued by NWS

Current Version | Previous Version | Graphics & Text | Print | Product List | Glossary On
Versions: 1 2 3 4 5 6 7 8 9 10 11 12 13 14 15 16 17 18 19 20
000
FTUS41 KPBZ 220857 AAA
TAFHLG
TAF AMD
KHLG 220857Z 2209/2306 00000KT 6SM BR SKC
      TEMPO 2209/2212 1/2SM FG SCT001
     FM221400 36004KT P6SM BKN250=

USA.gov is the U.S. government's official web portal to all federal, state and local government web resources and services.